Terminal Aerodrome Forecast
Issued by NWS Wakefield, VA

Home | Current Version | Previous Version | Text Only | Print | Product List | Glossary On
Versions: 1 2 3 4 5 6 7 8 9 10 11 12 13
000
FTUS41 KAKQ 271144
TAFECG
TAF
KECG 271144Z 2712/2812 VRB04KT P6SM SCT090
     FM271800 19006KT P6SM VCSH SCT100
     FM272100 16006KT P6SM VCSH BKN100
     FM280000 14005KT P6SM BKN100
     FM280600 VRB03KT P6SM BKN120=

USA.gov is the U.S. government's official web portal to all federal, state and local government web resources and services.